Latest Weather Observations for Nuriootpa

IDS60801

Issued at 7:35 pm CST Sunday 31 August 2014 (issued every 30 minutes, with the page automatically refreshed every 10 minutes)

About weather observations | Map of weather stations | Latest weather observations for SA | Other Formats
Station Details ID: 023373 Name: NURIOOTPA VITICULTURAL Lat: -34.48 Lon: 139.01 Height: 275.0 m
Data from the previous 72 hours. | See also: Recent months at Nuriootpa
Date/Time
CST
Temp
°C
App
Temp
°C
Dew
Point
Rel
Hum
%
Delta-T
°C
Wind Press
QNH
hPa
Press
MSL
hPa
Rain
since 9 am
mm
Dir
 
Spd
km/h
Gust
km/h
Spd
kts
Gust
kts
31/07:30pm 17.4 13.7 2.5 37 6.9 N 11 19 6 10 1011.5 1011.7 0.0
31/07:00pm 17.7 14.0 2.3 35 7.1 N 11 19 6 10 1011.5 1011.7 0.0
31/06:30pm 16.4 13.2 5.0 47 5.5 ENE 11 17 6 9 1011.6 1011.8 0.0
31/06:00pm 16.3 14.4 6.7 53 4.8 ENE 6 9 3 5 1011.9 1012.1 0.0
31/05:30pm 17.6 15.2 5.4 44 6.0 NNE 7 11 4 6 1011.6 1011.8 0.0
31/05:00pm 18.3 14.6 4.5 40 6.7 NNW 13 19 7 10 1011.4 1011.6 0.0
31/04:30pm 19.3 14.5 2.5 32 7.9 NNE 17 30 9 16 1010.6 1010.8 0.0
31/04:00pm 19.5 14.8 3.1 33 7.8 N 17 22 9 12 1011.3 1011.5 0.0
31/03:30pm 19.9 15.7 3.8 34 7.8 NNE 15 20 8 11 1011.8 1012.0 0.0
31/03:00pm 19.8 15.8 3.0 33 8.0 N 13 20 7 11 1012.5 1012.7 0.0
31/02:30pm 20.4 15.0 1.0 27 8.9 NNW 19 35 10 19 1012.7 1012.9 0.0
31/02:00pm 20.4 14.3 0.7 27 9.0 NW 22 35 12 19 1012.9 1013.1 0.0
31/01:30pm 20.1 13.6 0.1 26 9.0 NW 24 39 13 21 1013.4 1013.7 0.0
31/01:00pm 21.7 15.1 -0.1 23 9.9 NW 24 43 13 23 1013.7 1014.0 0.0
31/12:30pm 21.2 14.3 0.4 25 9.5 NW 26 41 14 22 1014.5 1014.7 0.0
31/12:00pm 20.2 13.5 -0.9 24 9.3 NW 24 44 13 24 1014.8 1015.0 0.0
31/11:30am 19.5 12.8 -1.1 25 9.0 NW 24 35 13 19 1015.4 1015.6 0.0
31/11:00am 18.5 14.0 2.0 33 7.6 NNW 15 20 8 11 1016.1 1016.4 0.0
31/10:30am 16.8 12.3 2.4 38 6.6 N 15 20 8 11 1016.2 1016.5 0.0
31/10:00am 16.2 12.7 3.6 43 5.9 N 11 17 6 9 1016.2 1016.5 0.0
31/09:30am 14.7 11.7 4.2 49 4.9 NNE 9 17 5 9 1016.5 1016.8 0.0
31/09:00am 13.6 10.1 3.5 50 4.6 NNE 11 17 6 9 1016.7 1017.0 0.0
31/08:30am 12.3 8.7 3.1 53 4.1 NNE 11 15 6 8 1016.9 1017.2 0.0
31/08:00am 9.6 6.0 3.2 64 2.8 NE 11 13 6 7 1016.9 1017.2 0.0
31/07:30am 8.3 4.7 2.7 68 2.4 NE 11 15 6 8 1017.0 1017.3 0.0
31/07:00am 5.8 2.5 2.7 80 1.3 ENE 9 11 5 6 1017.2 1017.5 0.0
31/06:30am 4.5 1.2 2.3 86 0.9 NE 9 11 5 6 1016.8 1017.1 0.0
31/06:00am 4.9 1.9 1.9 81 1.2 NE 7 9 4 5 1016.6 1016.9 0.0
31/05:30am 5.2 2.3 2.8 84 1.0 NE 7 11 4 6 1016.6 1016.9 0.0
31/05:00am 6.2 2.9 2.6 78 1.5 NE 9 13 5 7 1016.5 1016.8 0.0
31/04:30am 5.1 1.9 2.9 86 0.9 NE 9 11 5 6 1016.6 1016.9 0.0
31/04:00am 4.7 1.5 2.8 87 0.8 NE 9 11 5 6 1016.5 1016.8 0.0
31/03:30am 4.8 1.6 2.9 87 0.8 NE 9 11 5 6 1016.7 1017.0 0.0
31/03:00am 4.5 1.7 3.1 91 0.6 NE 7 9 4 5 1017.0 1017.3 0.0
31/02:30am 4.9 2.1 3.2 89 0.7 NE 7 9 4 5 1017.3 1017.6 0.0
31/02:00am 5.1 2.3 3.4 89 0.7 NE 7 9 4 5 1017.5 1017.8 0.0
31/01:30am 5.0 2.3 3.6 91 0.6 NE 7 9 4 5 1017.7 1018.0 0.0
31/01:00am 5.4 2.7 3.8 89 0.7 NE 7 9 4 5 1018.1 1018.3 0.0
31/12:30am 5.6 3.0 4.2 91 0.6 NE 7 9 4 5 1018.3 1018.5 0.0
31/12:00am 6.0 3.7 4.6 91 0.6 NE 6 7 3 4 1018.5 1018.7 0.0
 
Date/Time
CST
Temp
°C
App
Temp
°C
Dew
Point
Rel
Hum
%
Delta-T
°C
Wind Press
QNH
hPa
Press
MSL
hPa
Rain
since 9 am
mm
Dir
 
Spd
km/h
Gust
km/h
Spd
kts
Gust
kts
30/11:30pm 6.6 5.5 5.3 91 0.6 CALM 0 6 0 3 1018.8 1019.0 0.0
30/11:00pm 7.1 4.7 5.3 88 0.8 ENE 7 9 4 5 1019.0 1019.2 0.0
30/10:30pm 8.0 5.7 5.6 85 1.1 ENE 7 9 4 5 1019.4 1019.7 0.0
30/10:00pm 7.8 5.5 5.8 87 0.9 NNE 7 9 4 5 1019.6 1019.9 0.0
30/09:30pm 8.9 6.7 6.1 82 1.3 NE 7 11 4 6 1019.8 1020.1 0.0
30/09:00pm 9.8 7.6 6.4 79 1.6 NE 7 9 4 5 1020.0 1020.3 0.0
30/08:30pm 10.0 9.2 6.6 79 1.6 CALM 0 0 0 0 1020.1 1020.4 0.0
30/08:00pm 10.7 8.8 6.7 76 1.9 NE 6 7 3 4 1020.0 1020.3 0.0
30/07:30pm 11.8 9.9 6.6 70 2.5 NE 6 7 3 4 1020.1 1020.4 0.0
30/07:00pm 12.6 11.8 6.6 67 2.9 CALM 0 0 0 0 1019.9 1020.2 0.0
30/06:30pm 13.9 12.8 6.8 62 3.5 W 2 6 1 3 1019.9 1020.2 0.0
30/06:00pm 16.6 14.6 7.0 53 4.8 W 7 7 4 4 1019.8 1020.1 0.0
30/05:30pm 18.4 15.7 5.7 43 6.3 W 9 11 5 6 1019.5 1019.8 0.0
30/05:00pm 20.5 17.0 3.7 33 8.1 WNW 11 17 6 9 1019.6 1019.9 0.0
30/04:30pm 20.9 16.4 1.9 28 8.9 WNW 15 22 8 12 1019.7 1020.0 0.0
30/04:00pm 21.6 16.7 4.0 31 8.6 WNW 19 26 10 14 1019.9 1020.2 0.0
30/03:30pm 21.7 18.0 4.2 31 8.6 WNW 13 22 7 12 1019.9 1020.2 0.0
30/03:00pm 21.8 17.8 2.8 28 9.1 NNW 13 19 7 10 1020.2 1020.5 0.0
30/02:30pm 21.4 16.6 2.7 29 8.9 NW 17 24 9 13 1020.4 1020.7 0.0
30/02:00pm 21.9 18.0 3.3 29 9.0 NNW 13 20 7 11 1020.7 1021.0 0.0
30/01:30pm 21.3 16.8 1.9 27 9.1 NW 15 22 8 12 1021.1 1021.4 0.0
30/01:00pm 21.9 17.0 2.3 27 9.3 NNW 17 24 9 13 1021.6 1021.9 0.0
30/12:30pm 21.2 15.7 0.6 25 9.4 NNW 19 30 10 16 1022.3 1022.6 0.0
30/12:00pm 21.6 16.7 1.7 27 9.3 NNW 17 33 9 18 1022.8 1023.1 0.0
30/11:30am 21.2 16.1 1.0 26 9.3 NW 17 24 9 13 1023.1 1023.4 0.0
30/11:00am 20.6 16.3 3.2 31 8.3 NNW 15 20 8 11 1023.5 1023.8 0.0
30/10:30am 20.3 16.4 3.4 32 8.1 NNW 13 20 7 11 1023.8 1024.1 0.0
30/10:00am 19.5 17.1 6.9 44 6.4 NNE 9 13 5 7 1024.0 1024.3 0.0
30/09:30am 17.8 15.4 7.1 49 5.4 N 9 13 5 7 1024.2 1024.5 0.0
30/09:00am 16.1 14.3 7.1 55 4.5 N 6 9 3 5 1024.3 1024.6 0.0
30/08:30am 13.8 12.3 6.6 62 3.5 N 4 7 2 4 1024.3 1024.6 0.0
30/08:00am 10.0 9.2 6.6 79 1.6 CALM 0 0 0 0 1024.3 1024.6 0.0
30/07:30am 7.7 5.8 5.0 83 1.2 NE 4 7 2 4 1024.2 1024.5 0.0
30/07:00am 4.5 1.9 3.1 91 0.6 NE 6 6 3 3 1024.3 1024.6 0.0
30/06:30am 4.6 2.0 3.2 91 0.6 NE 6 7 3 4 1024.3 1024.6 0.0
30/06:00am 5.0 1.5 3.3 89 0.7 ENE 11 13 6 7 1024.2 1024.5 0.0
30/05:30am 5.4 1.9 3.5 87 0.8 NE 11 13 6 7 1024.3 1024.6 0.0
30/05:00am 5.3 2.6 3.6 89 0.7 NNE 7 9 4 5 1024.2 1024.5 0.0
30/04:30am 5.3 2.8 3.9 91 0.6 NNE 6 7 3 4 1024.1 1024.4 0.0
30/04:00am 6.5 3.1 4.0 84 1.1 ENE 11 13 6 7 1024.0 1024.3 0.0
30/03:30am 5.5 3.0 3.9 89 0.7 N 6 7 3 4 1024.1 1024.4 0.0
30/03:00am 6.1 3.7 4.3 88 0.8 N 6 6 3 3 1024.2 1024.5 0.0
30/02:30am 6.7 4.3 4.4 85 1.0 N 6 7 3 4 1024.5 1024.8 0.0
30/02:00am 7.7 4.7 4.3 79 1.5 NE 9 9 5 5 1024.7 1025.0 0.0
30/01:30am 7.7 4.4 4.3 79 1.5 NNE 11 13 6 7 1025.0 1025.3 0.0
30/01:00am 8.6 5.7 4.6 76 1.8 NNE 9 11 5 6 1025.1 1025.4 0.0
30/12:30am 7.3 4.9 5.1 86 1.0 NNE 7 11 4 6 1025.1 1025.4 0.0
30/12:00am 7.5 5.3 5.5 87 0.9 N 6 7 3 4 1025.3 1025.7 0.0
 
Date/Time
CST
Temp
°C
App
Temp
°C
Dew
Point
Rel
Hum
%
Delta-T
°C
Wind Press
QNH
hPa
Press
MSL
hPa
Rain
since 9 am
mm
Dir
 
Spd
km/h
Gust
km/h
Spd
kts
Gust
kts
29/11:30pm 7.7 5.4 5.5 86 1.0 NNE 7 9 4 5 1025.4 1025.8 0.0
29/11:00pm 7.9 5.8 5.9 87 0.9 NNE 6 7 3 4 1025.5 1025.9 0.0
29/10:30pm 8.2 6.1 6.0 86 1.0 ENE 6 7 3 4 1025.9 1026.2 0.0
29/10:00pm 8.7 6.7 6.3 85 1.1 ENE 6 7 3 4 1026.0 1026.3 0.0
29/09:30pm 9.3 7.7 6.5 83 1.3 NE 4 6 2 3 1026.2 1026.5 0.0
29/09:00pm 10.1 8.2 6.7 79 1.6 ENE 6 7 3 4 1026.2 1026.5 0.0
29/08:30pm 11.5 8.6 6.5 71 2.4 ENE 11 11 6 6 1026.0 1026.3 0.0
29/08:00pm 11.7 9.8 6.9 72 2.3 N 6 7 3 4 1025.8 1026.1 0.0
29/07:30pm 12.5 11.5 7.2 70 2.6 NNE 2 7 1 4 1025.8 1026.1 0.0
29/07:00pm 13.8 11.3 6.4 61 3.6 E 9 11 5 6 1025.5 1025.9 0.0
29/06:30pm 13.9 12.4 8.6 70 2.7 ESE 6 7 3 4 1025.4 1025.8 0.0
29/06:00pm 17.5 15.5 7.2 51 5.2 ESE 7 9 4 5 1025.3 1025.7 0.0
29/05:30pm 19.9 17.9 6.2 41 6.9 E 6 7 3 4 1025.3 1025.7 0.0
29/05:00pm 20.9 18.6 5.8 37 7.6 E 7 9 4 5 1025.3 1025.7 0.0
29/04:30pm 21.5 18.4 3.5 30 8.7 ENE 9 13 5 7 1025.4 1025.8 0.0
29/04:00pm 22.1 18.6 3.3 29 9.1 NE 11 17 6 9 1025.4 1025.8 0.0
29/03:30pm 22.5 19.7 5.2 32 8.7 NNE 9 15 5 8 1025.4 1025.8 0.0
29/03:00pm 22.5 19.3 4.9 31 8.8 NE 11 19 6 10 1025.8 1026.1 0.0
29/02:30pm 22.2 19.5 5.6 34 8.4 N 9 17 5 9 1026.0 1026.3 0.0
29/02:00pm 22.3 19.4 4.5 31 8.9 NNE 9 15 5 8 1026.4 1026.7 0.0
29/01:30pm 22.0 19.6 5.2 33 8.4 N 7 11 4 6 1026.6 1026.9 0.0
29/01:00pm 21.5 18.8 5.6 35 8.0 ENE 9 15 5 8 1026.9 1027.2 0.0
29/12:30pm 21.8 19.1 5.5 34 8.2 NNE 9 15 5 8 1027.5 1027.8 0.0
29/12:00pm 21.4 19.0 5.4 35 8.0 NE 7 13 4 7 1028.1 1028.4 0.0
29/11:30am 21.1 18.4 5.8 37 7.7 NE 9 13 5 7 1028.4 1028.8 0.0
29/11:00am 20.1 16.9 5.1 37 7.4 NE 11 15 6 8 1028.7 1029.1 0.0
29/10:30am 19.6 16.5 7.1 44 6.4 NE 13 19 7 10 1028.8 1029.2 0.0
29/10:00am 18.7 16.1 6.0 43 6.3 ENE 9 15 5 8 1028.9 1029.3 0.0
29/09:30am 17.3 15.0 7.4 52 5.0 ENE 9 15 5 8 1028.9 1029.3 0.0
29/09:00am 15.7 13.4 7.3 57 4.2 NE 9 13 5 7 1029.0 1029.4 0.0
29/08:30am 12.7 12.1 7.2 69 2.7 CALM 0 0 0 0 1029.1 1029.5 0.0
29/08:00am 9.2 8.6 7.3 88 0.9 CALM 0 0 0 0 1029.1 1029.5 0.0
29/07:30am 6.5 5.4 4.9 89 0.7 CALM 0 0 0 0 1029.0 1029.4 0.0
29/07:00am 4.6 3.3 3.9 95 0.3 CALM 0 0 0 0 1028.9 1029.3 0.0
29/06:30am 4.6 3.2 3.6 93 0.4 CALM 0 0 0 0 1028.7 1029.1 0.0
29/06:00am 4.8 3.5 3.9 94 0.4 CALM 0 0 0 0 1028.5 1028.9 0.0
29/05:30am 5.7 3.6 4.1 89 0.7 NNE 4 6 2 3 1028.2 1028.6 0.0
29/05:00am 6.8 4.3 4.5 85 1.0 NNE 7 11 4 6 1028.1 1028.4 0.0
29/04:30am 7.3 4.4 4.8 84 1.1 NNE 9 9 5 5 1028.1 1028.4 0.0
29/04:00am 7.0 4.5 5.0 87 0.9 N 7 9 4 5 1028.0 1028.3 0.0
29/03:30am 6.3 3.8 4.7 89 0.7 N 7 9 4 5 1028.0 1028.3 0.0
29/03:00am 6.8 5.0 5.2 89 0.7 NNW 4 6 2 3 1028.0 1028.3 0.0
29/02:30am 7.1 4.9 5.1 87 0.9 N 6 7 3 4 1028.1 1028.4 0.0
29/02:00am 8.4 5.9 4.8 78 1.6 E 7 13 4 7 1028.3 1028.7 0.0
29/01:30am 11.7 9.4 5.5 66 2.9 NNE 7 11 4 6 1028.5 1028.9 0.0
29/01:00am 9.8 7.7 5.9 77 1.8 N 6 7 3 4 1028.6 1029.0 0.0
29/12:30am 7.8 6.8 5.4 85 1.1 CALM 0 4 0 2 1028.7 1029.1 0.0
29/12:00am 8.3 6.2 5.7 84 1.2 E 6 11 3 6 1028.6 1029.0 0.0
 
Date/Time
CST
Temp
°C
App
Temp
°C
Dew
Point
Rel
Hum
%
Delta-T
°C
Wind Press
QNH
hPa
Press
MSL
hPa
Rain
since 9 am
mm
Dir
 
Spd
km/h
Gust
km/h
Spd
kts
Gust
kts
28/11:30pm 6.7 4.6 5.6 93 0.5 N 6 7 3 4 1028.7 1029.1 0.0
28/11:00pm 6.9 5.9 5.6 91 0.6 CALM 0 0 0 0 1028.7 1029.1 0.0
28/10:30pm 7.1 5.4 5.8 91 0.6 NNE 4 6 2 3 1028.7 1029.1 0.0
28/10:00pm 7.5 6.6 6.2 91 0.6 CALM 0 0 0 0 1028.9 1029.3 0.0
28/09:30pm 8.2 7.3 6.2 87 0.9 CALM 0 0 0 0 1028.9 1029.3 0.0
28/09:00pm 9.2 8.4 6.6 84 1.2 CALM 0 0 0 0 1028.7 1029.1 0.0
28/08:30pm 9.9 8.1 7.0 82 1.4 NE 6 6 3 3 1028.5 1028.9 0.0
28/08:00pm 10.6 9.9 6.8 77 1.8 CALM 0 6 0 3 1028.2 1028.6 0.0

Other Formats:

Comma delimited format used in spreadsheet applications
http://www.bom.gov.au/fwo/IDS60801/IDS60801.94681.axf

JavaScript Object Notation format (JSON) in row-major order
http://www.bom.gov.au/fwo/IDS60801/IDS60801.94681.json